createdAt,value
2018-06-24T00:01:18.557Z,101819.77
2018-06-24T00:03:47.158Z,101808.70
2018-06-24T00:06:15.601Z,101818.94
2018-06-24T00:08:44.362Z,101815.58
2018-06-24T00:11:12.828Z,101819.91
2018-06-24T00:13:41.203Z,101810.71
2018-06-24T00:16:09.546Z,101808.00
2018-06-24T00:18:37.946Z,101808.51
2018-06-24T00:21:06.433Z,101799.90
2018-06-24T00:23:35.145Z,101796.72
2018-06-24T00:26:03.821Z,101795.58
2018-06-24T00:28:32.069Z,101790.48
2018-06-24T00:31:00.881Z,101787.13
2018-06-24T00:33:29.053Z,101786.21
2018-06-24T00:35:57.649Z,101786.37
2018-06-24T00:38:26.159Z,101777.31
2018-06-24T00:40:54.653Z,101776.55
2018-06-24T00:43:23.374Z,101775.19
2018-06-24T00:45:52.085Z,101779.86
2018-06-24T00:48:20.577Z,101777.47
2018-06-24T00:50:49.846Z,101778.71
2018-06-24T00:56:11.548Z,101777.86
2018-06-24T00:58:39.976Z,101774.42
2018-06-24T01:01:08.502Z,101770.19
2018-06-24T01:03:36.656Z,101772.12
2018-06-24T01:06:05.366Z,101766.33
2018-06-24T01:11:23.746Z,101772.34
2018-06-24T01:13:52.729Z,101769.37
2018-06-24T01:16:21.137Z,101763.97
2018-06-24T01:18:49.632Z,101762.62
2018-06-24T01:21:18.388Z,101764.08
2018-06-24T01:23:46.529Z,101762.84
2018-06-24T01:26:14.640Z,101769.67
2018-06-24T01:28:43.396Z,101767.20
2018-06-24T01:31:11.551Z,101766.93
2018-06-24T01:33:39.665Z,101767.12
2018-06-24T01:36:08.329Z,101766.73
2018-06-24T01:38:36.472Z,101761.06
2018-06-24T01:41:04.644Z,101765.22
2018-06-24T01:43:33.105Z,101769.34
2018-06-24T01:46:01.910Z,101761.94
2018-06-24T01:48:30.541Z,101763.02
2018-06-24T01:50:59.321Z,101765.55
2018-06-24T01:53:27.951Z,101757.92
2018-06-24T01:55:56.856Z,101754.37
2018-06-24T01:58:25.314Z,101752.13
2018-06-24T02:00:54.105Z,101752.63
2018-06-24T02:03:22.881Z,101757.53
2018-06-24T02:05:51.614Z,101751.17
2018-06-24T02:08:20.065Z,101746.93
2018-06-24T02:10:49.917Z,101746.33
2018-06-24T02:13:18.603Z,101749.02
2018-06-24T02:15:46.945Z,101744.23
2018-06-24T02:18:15.698Z,101734.13
2018-06-24T02:20:44.500Z,101736.05
2018-06-24T02:23:12.616Z,101733.35
2018-06-24T02:25:41.274Z,101728.80
2018-06-24T02:28:09.720Z,101726.72
2018-06-24T02:30:38.154Z,101734.43
2018-06-24T02:33:06.276Z,101729.88
2018-06-24T02:35:34.761Z,101732.58
2018-06-24T02:38:02.950Z,101727.95
2018-06-24T02:40:31.698Z,101727.46
2018-06-24T02:43:00.152Z,101725.37
2018-06-24T02:45:28.300Z,101723.63
2018-06-24T02:47:56.568Z,101723.63
2018-06-24T02:50:24.708Z,101716.28
2018-06-24T02:52:53.117Z,101713.50
2018-06-24T02:55:21.793Z,101721.09
2018-06-24T02:57:50.189Z,101718.63
2018-06-24T03:00:18.908Z,101721.40
2018-06-24T03:02:47.324Z,101722.02
2018-06-24T03:05:15.841Z,101719.00
2018-06-24T03:07:43.956Z,101715.62
2018-06-24T03:10:12.689Z,101723.52
2018-06-24T03:12:41.160Z,101722.45
2018-06-24T03:15:09.776Z,101723.22
2018-06-24T03:17:38.249Z,101726.69
2018-06-24T03:20:07.233Z,101686.93
2018-06-24T03:22:35.908Z,101722.03
2018-06-24T03:25:04.020Z,101725.12
2018-06-24T03:27:32.789Z,101718.75
2018-06-24T03:30:01.833Z,101727.52
2018-06-24T03:32:30.825Z,101720.30
2018-06-24T03:34:59.764Z,101722.38
2018-06-24T03:37:28.240Z,101720.95
2018-06-24T03:39:56.672Z,101722.19
2018-06-24T03:42:24.816Z,101719.99
2018-06-24T03:44:52.967Z,101721.23
2018-06-24T03:47:21.100Z,101718.22
2018-06-24T03:49:50.223Z,101717.25
2018-06-24T03:52:18.634Z,101715.41
2018-06-24T03:54:46.973Z,101725.63
2018-06-24T03:57:15.384Z,101721.77
2018-06-24T03:59:43.898Z,101720.34
2018-06-24T04:02:12.033Z,101723.78
2018-06-24T04:04:40.184Z,101724.78
2018-06-24T04:07:08.941Z,101725.63
2018-06-24T04:09:37.368Z,101725.05
2018-06-24T04:12:06.153Z,101715.48
2018-06-24T04:14:34.877Z,101717.48
2018-06-24T04:17:03.541Z,101707.61
2018-06-24T04:19:32.241Z,101715.52
2018-06-24T04:22:00.990Z,101716.37
2018-06-24T04:24:29.116Z,101718.60
2018-06-24T04:26:58.141Z,101717.25
2018-06-24T04:29:26.585Z,101718.41
2018-06-24T04:31:55.046Z,101711.92
2018-06-24T04:34:23.501Z,101712.51
2018-06-24T04:36:51.995Z,101717.91
2018-06-24T04:39:20.622Z,101720.49
2018-06-24T04:41:50.416Z,101695.46
2018-06-24T04:44:19.134Z,101716.52
2018-06-24T04:46:48.044Z,101718.91
2018-06-24T04:49:16.712Z,101723.61
2018-06-24T04:51:45.254Z,101712.40
2018-06-24T04:54:14.421Z,101720.57
2018-06-24T04:56:42.925Z,101725.58
2018-06-24T04:59:11.132Z,101717.73
2018-06-24T05:01:39.848Z,101719.23
2018-06-24T05:04:08.625Z,101719.80
2018-06-24T05:06:36.773Z,101717.13
2018-06-24T05:09:07.005Z,101720.65
2018-06-24T05:11:35.436Z,101720.12
2018-06-24T05:14:04.665Z,101721.87
2018-06-24T05:16:33.256Z,101724.64
2018-06-24T05:19:01.721Z,101725.52
2018-06-24T05:21:30.265Z,101727.88
2018-06-24T05:23:59.068Z,101732.63
2018-06-24T05:26:27.177Z,101727.65
2018-06-24T05:28:55.596Z,101725.84
2018-06-24T05:31:23.884Z,101728.55
2018-06-24T05:33:52.404Z,101724.99
2018-06-24T05:36:20.761Z,101731.30
2018-06-24T05:38:50.085Z,101727.75
2018-06-24T05:41:18.525Z,101728.44
2018-06-24T05:43:46.992Z,101733.77
2018-06-24T05:46:15.280Z,101728.11
2018-06-24T05:48:44.038Z,101731.58
2018-06-24T05:51:12.730Z,101728.02
2018-06-24T05:53:42.461Z,101726.88
2018-06-24T05:56:11.436Z,101728.87
2018-06-24T05:58:40.140Z,101736.52
2018-06-24T06:01:08.253Z,101736.19
2018-06-24T06:03:36.581Z,101730.22
2018-06-24T06:06:05.241Z,101727.98
2018-06-24T06:08:33.724Z,101730.59
2018-06-24T06:11:02.149Z,101731.83
2018-06-24T06:13:31.349Z,101733.52
2018-06-24T06:16:00.129Z,101740.30
2018-06-24T06:18:28.985Z,101739.31
2018-06-24T06:20:57.401Z,101733.02
2018-06-24T06:23:26.076Z,101742.23
2018-06-24T06:25:54.573Z,101745.28
2018-06-24T06:28:22.960Z,101745.45
2018-06-24T06:30:51.661Z,101742.78
2018-06-24T06:33:19.933Z,101741.25
2018-06-24T06:35:48.209Z,101740.09
2018-06-24T06:38:17.037Z,101741.23
2018-06-24T06:40:45.189Z,101748.81
2018-06-24T06:43:13.337Z,101752.88
2018-06-24T06:45:41.635Z,101750.39
2018-06-24T06:48:10.093Z,101755.46
2018-06-24T06:50:38.889Z,101753.13
2018-06-24T06:53:07.079Z,101754.86
2018-06-24T06:55:35.528Z,101742.48
2018-06-24T06:58:03.952Z,101738.83
2018-06-24T07:00:32.073Z,101744.37
2018-06-24T07:03:00.616Z,101752.25
2018-06-24T07:05:29.397Z,101752.75
2018-06-24T07:07:58.110Z,101725.66
2018-06-24T07:10:26.441Z,101752.31
2018-06-24T07:12:55.261Z,101754.89
2018-06-24T07:15:23.877Z,101759.20
2018-06-24T07:17:52.269Z,101756.14
2018-06-24T07:20:20.724Z,101754.31
2018-06-24T07:22:50.640Z,101752.58
2018-06-24T07:25:19.692Z,101751.60
2018-06-24T07:27:48.164Z,101757.98
2018-06-24T07:30:16.765Z,101755.19
2018-06-24T07:32:45.076Z,101756.39
2018-06-24T07:35:13.231Z,101752.34
2018-06-24T07:37:41.519Z,101746.80
2018-06-24T07:40:10.521Z,101752.86
2018-06-24T07:42:38.978Z,101747.41
2018-06-24T07:45:07.168Z,101746.31
2018-06-24T07:47:35.609Z,101745.97
2018-06-24T07:50:03.820Z,101748.64
2018-06-24T07:52:32.283Z,101750.22
2018-06-24T07:55:00.737Z,101749.23
2018-06-24T07:57:29.276Z,101744.02
2018-06-24T07:59:57.600Z,101751.42
2018-06-24T08:02:26.501Z,101746.49
2018-06-24T08:04:54.782Z,101743.41
2018-06-24T08:07:23.201Z,101755.05
2018-06-24T08:09:51.440Z,101758.11
2018-06-24T08:12:19.904Z,101755.30
2018-06-24T08:14:48.233Z,101755.77
2018-06-24T08:17:16.689Z,101765.31
2018-06-24T08:19:45.100Z,101764.09
2018-06-24T08:22:13.247Z,101772.12
2018-06-24T08:24:41.700Z,101772.59
2018-06-24T08:27:09.820Z,101785.45
2018-06-24T08:29:38.908Z,101777.41
2018-06-24T08:32:07.911Z,101775.54
2018-06-24T08:34:36.248Z,101779.23
2018-06-24T08:37:04.476Z,101781.84
2018-06-24T08:39:32.601Z,101777.64
2018-06-24T08:42:00.752Z,101775.44
2018-06-24T08:44:29.233Z,101771.86
2018-06-24T08:46:57.790Z,101774.70
2018-06-24T08:49:26.507Z,101784.20
2018-06-24T08:51:54.628Z,101774.45
2018-06-24T08:54:22.908Z,101775.77
2018-06-24T08:56:51.812Z,101778.45
2018-06-24T08:59:20.569Z,101785.09
2018-06-24T09:04:41.890Z,101781.73
2018-06-24T09:07:10.316Z,101773.45
2018-06-24T09:09:38.732Z,101778.25
2018-06-24T09:12:07.469Z,101777.90
2018-06-24T09:14:35.928Z,101780.17
2018-06-24T09:17:04.529Z,101768.13
2018-06-24T09:19:32.980Z,101772.20
2018-06-24T09:22:01.447Z,101767.27
2018-06-24T09:24:30.069Z,101771.67
2018-06-24T09:26:58.812Z,101773.20
2018-06-24T09:29:26.904Z,101764.00
2018-06-24T09:31:55.647Z,101766.51
2018-06-24T09:34:24.108Z,101767.66
2018-06-24T09:36:52.513Z,101770.02
2018-06-24T09:39:21.123Z,101766.55
2018-06-24T09:41:51.381Z,101771.67
2018-06-24T09:44:19.812Z,101757.42
2018-06-24T09:46:48.288Z,101764.58
2018-06-24T09:49:17.293Z,101761.99
2018-06-24T09:51:45.576Z,101756.08
2018-06-24T09:54:14.028Z,101759.52
2018-06-24T09:56:42.465Z,101756.33
2018-06-24T09:59:10.594Z,101755.45
2018-06-24T10:01:38.929Z,101765.22
2018-06-24T10:04:07.477Z,101748.68
2018-06-24T10:06:36.196Z,101753.34
2018-06-24T10:09:07.906Z,101759.40
2018-06-24T10:11:36.451Z,101746.20
2018-06-24T10:14:05.097Z,101747.70
2018-06-24T10:16:33.938Z,101750.52
2018-06-24T10:19:02.927Z,101752.98
2018-06-24T10:21:31.669Z,101748.16
2018-06-24T10:24:00.814Z,101747.69
2018-06-24T10:26:28.944Z,101752.88
2018-06-24T10:28:57.049Z,101749.28
2018-06-24T10:31:25.529Z,101748.92
2018-06-24T10:33:53.956Z,101755.69
2018-06-24T10:36:22.362Z,101752.86
2018-06-24T10:38:51.481Z,101758.16
2018-06-24T10:41:20.110Z,101751.48
2018-06-24T10:43:48.621Z,101750.28
2018-06-24T10:46:17.345Z,101745.94
2018-06-24T10:48:45.737Z,101745.19
2018-06-24T10:51:14.178Z,101741.37
2018-06-24T10:53:42.937Z,101731.09
2018-06-24T10:56:11.081Z,101739.94
2018-06-24T10:58:39.596Z,101744.41
2018-06-24T11:01:08.332Z,101744.34
2018-06-24T11:03:37.049Z,101745.94
2018-06-24T11:06:06.209Z,101746.34
2018-06-24T11:08:34.973Z,101741.75
2018-06-24T11:11:03.701Z,101734.73
2018-06-24T11:13:31.800Z,101745.45
2018-06-24T11:16:00.525Z,101750.24
2018-06-24T11:18:29.325Z,101741.11
2018-06-24T11:20:57.886Z,101740.62
2018-06-24T11:23:27.094Z,101748.84
2018-06-24T11:25:55.550Z,101747.53
2018-06-24T11:28:24.331Z,101744.11
2018-06-24T11:30:53.270Z,101748.33
2018-06-24T11:33:22.077Z,101742.31
2018-06-24T11:35:51.433Z,101751.72
2018-06-24T11:38:19.829Z,101748.77
2018-06-24T11:40:48.112Z,101747.67
2018-06-24T11:43:16.250Z,101749.08
2018-06-24T11:45:44.698Z,101741.91
2018-06-24T11:48:12.855Z,101745.14
2018-06-24T11:50:41.558Z,101742.22
2018-06-24T11:53:10.005Z,101741.20
2018-06-24T11:55:38.665Z,101744.44
2018-06-24T11:58:07.677Z,101733.97
2018-06-24T12:00:36.332Z,101738.66
2018-06-24T12:03:05.148Z,101738.44
2018-06-24T12:05:33.797Z,101732.63
2018-06-24T12:08:02.693Z,101738.53
2018-06-24T12:10:30.797Z,101731.87
2018-06-24T12:12:59.329Z,101733.13
2018-06-24T12:15:27.893Z,101734.10
2018-06-24T12:17:56.182Z,101727.21
2018-06-24T12:20:24.557Z,101721.66
2018-06-24T12:22:53.288Z,101721.90
2018-06-24T12:25:21.717Z,101717.42
2018-06-24T12:27:51.402Z,101710.86
2018-06-24T12:30:20.053Z,101708.37
2018-06-24T12:32:48.496Z,101706.50
2018-06-24T12:35:17.097Z,101706.95
2018-06-24T12:37:45.704Z,101702.25
2018-06-24T12:40:14.584Z,101708.81
2018-06-24T12:42:43.241Z,101707.78
2018-06-24T12:45:11.888Z,101705.05
2018-06-24T12:47:40.497Z,101706.38
2018-06-24T12:50:08.884Z,101705.63
2018-06-24T12:52:37.545Z,101701.70
2018-06-24T12:55:05.958Z,101701.63
2018-06-24T12:57:34.410Z,101696.64
2018-06-24T13:00:03.235Z,101700.20
2018-06-24T13:02:31.763Z,101698.89
2018-06-24T13:05:00.658Z,101700.22
2018-06-24T13:07:29.190Z,101701.75
2018-06-24T13:09:57.688Z,101699.78
2018-06-24T13:12:26.440Z,101696.50
2018-06-24T13:14:55.106Z,101692.88
2018-06-24T13:17:23.583Z,101687.87
2018-06-24T13:19:52.689Z,101689.86
2018-06-24T13:22:20.962Z,101692.33
2018-06-24T13:24:49.425Z,101685.61
2018-06-24T13:27:17.802Z,101674.17
2018-06-24T13:29:46.641Z,101676.47
2018-06-24T13:32:15.038Z,101676.63
2018-06-24T13:34:43.679Z,101688.18
2018-06-24T13:37:12.037Z,101685.17
2018-06-24T13:39:40.385Z,101691.61
2018-06-24T13:42:08.741Z,101683.45
2018-06-24T13:44:37.566Z,101682.73
2018-06-24T13:47:06.593Z,101684.09
2018-06-24T13:49:35.349Z,101682.70
2018-06-24T13:52:04.310Z,101683.27
2018-06-24T13:54:33.025Z,101682.38
2018-06-24T13:57:01.530Z,101679.09
2018-06-24T13:59:30.310Z,101681.39
2018-06-24T14:01:58.780Z,101677.06
2018-06-24T14:04:27.417Z,101679.41
2018-06-24T14:06:55.861Z,101675.84
2018-06-24T14:09:24.803Z,101675.76
2018-06-24T14:11:53.593Z,101671.89
2018-06-24T14:14:22.396Z,101674.11
2018-06-24T14:16:51.742Z,101673.32
2018-06-24T14:19:20.401Z,101673.16
2018-06-24T14:21:48.867Z,101670.31
2018-06-24T14:24:17.533Z,101669.92
2018-06-24T14:26:45.984Z,101672.66
2018-06-24T14:29:14.540Z,101670.26
2018-06-24T14:31:42.989Z,101674.56
2018-06-24T14:34:11.714Z,101672.83
2018-06-24T14:36:40.924Z,101672.98
2018-06-24T14:39:10.744Z,101676.89
2018-06-24T14:41:39.850Z,101666.12
2018-06-24T14:44:08.868Z,101665.25
2018-06-24T14:46:37.188Z,101671.08
2018-06-24T14:49:05.669Z,101673.77
2018-06-24T14:51:33.813Z,101669.48
2018-06-24T14:54:02.566Z,101667.52
2018-06-24T14:56:31.046Z,101673.87
2018-06-24T14:58:59.944Z,101674.28
2018-06-24T15:01:28.348Z,101670.66
2018-06-24T15:03:56.622Z,101673.86
2018-06-24T15:06:24.985Z,101672.73
2018-06-24T15:08:53.729Z,101679.84
2018-06-24T15:11:22.592Z,101681.34
2018-06-24T15:13:51.905Z,101683.91
2018-06-24T15:16:21.461Z,101678.09
2018-06-24T15:18:49.618Z,101675.13
2018-06-24T15:21:17.749Z,101674.17
2018-06-24T15:23:46.485Z,101675.71
2018-06-24T15:26:14.646Z,101672.31
2018-06-24T15:28:42.817Z,101664.44
2018-06-24T15:31:11.545Z,101662.80
2018-06-24T15:33:39.698Z,101663.03
2018-06-24T15:36:08.929Z,101659.72
2018-06-24T15:38:37.738Z,101669.75
2018-06-24T15:41:05.950Z,101661.14
2018-06-24T15:43:34.913Z,101663.85
2018-06-24T15:46:03.326Z,101661.75
2018-06-24T15:48:31.809Z,101661.76
2018-06-24T15:51:00.530Z,101659.05
2018-06-24T15:53:28.973Z,101664.37
2018-06-24T15:55:57.484Z,101653.75
2018-06-24T15:58:26.033Z,101646.59
2018-06-24T16:00:54.663Z,101647.71
2018-06-24T16:03:22.838Z,101649.30
2018-06-24T16:05:52.022Z,101643.40
2018-06-24T16:08:20.893Z,101640.17
2018-06-24T16:10:49.298Z,101635.87
2018-06-24T16:13:17.969Z,101641.52
2018-06-24T16:15:46.781Z,101625.83
2018-06-24T16:18:15.503Z,101631.72
2018-06-24T16:20:43.812Z,101634.42
2018-06-24T16:23:12.266Z,101635.48
2018-06-24T16:25:40.993Z,101635.59
2018-06-24T16:28:09.773Z,101631.68
2018-06-24T16:30:38.088Z,101640.20
2018-06-24T16:33:06.948Z,101629.64
2018-06-24T16:35:35.396Z,101624.31
2018-06-24T16:38:03.637Z,101621.52
2018-06-24T16:40:32.364Z,101631.59
2018-06-24T16:43:01.097Z,101625.23
2018-06-24T16:45:29.409Z,101627.97
2018-06-24T16:47:58.025Z,101627.47
2018-06-24T16:50:26.729Z,101622.70
2018-06-24T16:52:55.175Z,101617.47
2018-06-24T16:55:23.824Z,101622.48
2018-06-24T16:57:52.520Z,101622.59
2018-06-24T17:00:20.950Z,101622.03
2018-06-24T17:02:49.425Z,101620.63
2018-06-24T17:05:17.985Z,101621.84
2018-06-24T17:07:46.717Z,101625.00
2018-06-24T17:10:14.875Z,101631.37
2018-06-24T17:12:43.972Z,101620.72
2018-06-24T17:15:12.461Z,101626.72
2018-06-24T17:17:41.089Z,101615.28
2018-06-24T17:20:09.518Z,101622.89
2018-06-24T17:22:37.989Z,101625.05
2018-06-24T17:25:06.445Z,101623.57
2018-06-24T17:27:34.907Z,101630.55
2018-06-24T17:30:03.646Z,101624.55
2018-06-24T17:32:32.065Z,101633.81
2018-06-24T17:35:00.988Z,101625.32
2018-06-24T17:37:29.099Z,101626.36
2018-06-24T17:39:57.989Z,101626.66
2018-06-24T17:42:26.412Z,101624.05
2018-06-24T17:44:55.200Z,101621.04
2018-06-24T17:47:23.376Z,101617.63
2018-06-24T17:49:52.664Z,101619.11
2018-06-24T17:52:21.113Z,101614.18
2018-06-24T17:54:49.789Z,101618.30
2018-06-24T17:57:17.909Z,101614.98
2018-06-24T17:59:46.406Z,101610.20
2018-06-24T18:02:14.825Z,101611.42
2018-06-24T18:04:43.490Z,101617.38
2018-06-24T18:07:12.231Z,101618.39
2018-06-24T18:09:41.302Z,101613.72
2018-06-24T18:12:10.257Z,101610.89
2018-06-24T18:14:38.901Z,101616.87
2018-06-24T18:17:07.381Z,101620.19
2018-06-24T18:19:36.105Z,101621.66
2018-06-24T18:22:04.235Z,101621.73
2018-06-24T18:24:32.806Z,101620.97
2018-06-24T18:27:01.216Z,101616.71
2018-06-24T18:29:29.980Z,101613.37
2018-06-24T18:31:58.476Z,101614.88
2018-06-24T18:34:26.805Z,101616.71
2018-06-24T18:36:55.544Z,101611.49
2018-06-24T18:39:25.536Z,101613.63
2018-06-24T18:41:54.288Z,101617.41
2018-06-24T18:44:22.510Z,101616.55
2018-06-24T18:46:54.080Z,101622.16
2018-06-24T18:49:22.509Z,101627.75
2018-06-24T18:54:42.846Z,101624.29
2018-06-24T18:57:11.286Z,101628.52
2018-06-24T19:02:30.904Z,101619.20
2018-06-24T19:04:59.459Z,101627.86
2018-06-24T19:07:28.212Z,101630.59
2018-06-24T19:10:16.189Z,101631.09
2018-06-24T19:12:45.845Z,101631.24
2018-06-24T19:15:14.317Z,101635.09
2018-06-24T19:17:42.446Z,101634.13
2018-06-24T19:20:10.898Z,101631.56
2018-06-24T19:22:39.057Z,101637.98
2018-06-24T19:25:07.282Z,101638.38
2018-06-24T19:27:35.796Z,101637.23
2018-06-24T19:30:04.095Z,101645.38
2018-06-24T19:32:32.568Z,101645.14
2018-06-24T19:35:01.365Z,101638.37
2018-06-24T19:37:30.136Z,101647.63
2018-06-24T19:39:58.271Z,101650.96
2018-06-24T19:42:26.429Z,101652.84
2018-06-24T19:44:54.920Z,101626.69
2018-06-24T19:47:23.422Z,101642.36
2018-06-24T19:49:52.522Z,101648.91
2018-06-24T19:52:21.010Z,101654.07
2018-06-24T19:54:49.475Z,101648.55
2018-06-24T19:57:18.252Z,101656.79
2018-06-24T19:59:46.411Z,101654.07
2018-06-24T20:02:14.936Z,101651.36
2018-06-24T20:04:43.058Z,101656.45
2018-06-24T20:07:11.218Z,101652.71
2018-06-24T20:09:39.343Z,101657.53
2018-06-24T20:12:07.716Z,101661.23
2018-06-24T20:14:36.471Z,101662.59
2018-06-24T20:17:05.019Z,101663.58
2018-06-24T20:19:33.231Z,101671.48
2018-06-24T20:22:02.018Z,101661.38
2018-06-24T20:24:30.239Z,101665.96
2018-06-24T20:26:58.543Z,101665.08
2018-06-24T20:29:26.721Z,101664.98
2018-06-24T20:31:55.169Z,101668.82
2018-06-24T20:34:23.625Z,101663.35
2018-06-24T20:36:52.386Z,101673.49
2018-06-24T20:39:21.338Z,101672.61
2018-06-24T20:41:49.817Z,101669.27
2018-06-24T20:44:18.453Z,101672.36
2018-06-24T20:46:47.429Z,101677.30
2018-06-24T20:49:15.838Z,101682.13
2018-06-24T20:51:44.011Z,101680.77
2018-06-24T20:54:12.456Z,101691.30
2018-06-24T20:56:40.614Z,101691.77
2018-06-24T20:59:09.594Z,101684.75
2018-06-24T21:01:38.059Z,101692.41
2018-06-24T21:04:06.773Z,101689.33
2018-06-24T21:06:35.031Z,101687.97
2018-06-24T21:09:04.070Z,101688.34
2018-06-24T21:11:32.233Z,101686.61
2018-06-24T21:14:00.715Z,101684.50
2018-06-24T21:16:29.119Z,101686.14
2018-06-24T21:18:57.337Z,101686.98
2018-06-24T21:21:25.935Z,101688.58
2018-06-24T21:23:54.342Z,101687.97
2018-06-24T21:26:22.712Z,101684.75
2018-06-24T21:28:52.192Z,101686.23
2018-06-24T21:31:20.902Z,101689.05
2018-06-24T21:33:49.358Z,101680.67
2018-06-24T21:36:17.478Z,101687.70
2018-06-24T21:38:45.664Z,101688.34
2018-06-24T21:41:14.134Z,101678.84
2018-06-24T21:43:42.619Z,101679.83
2018-06-24T21:46:10.983Z,101672.30
2018-06-24T21:48:39.542Z,101673.79
2018-06-24T21:51:08.282Z,101680.20
2018-06-24T21:53:36.782Z,101680.70
2018-06-24T21:56:05.518Z,101678.36
2018-06-24T21:58:33.666Z,101681.32
2018-06-24T22:01:02.402Z,101682.54
2018-06-24T22:03:30.894Z,101681.70
2018-06-24T22:05:59.665Z,101680.06
2018-06-24T22:08:28.380Z,101687.22
2018-06-24T22:10:56.523Z,101676.50
2018-06-24T22:13:24.673Z,101672.19
2018-06-24T22:15:52.830Z,101673.69
2018-06-24T22:18:21.542Z,101680.70
2018-06-24T22:20:49.892Z,101680.95
2018-06-24T22:23:18.687Z,101689.94
2018-06-24T22:25:47.122Z,101689.56
2018-06-24T22:28:15.602Z,101687.31
2018-06-24T22:30:44.045Z,101681.66
2018-06-24T22:33:12.555Z,101679.31
2018-06-24T22:35:41.358Z,101679.83
2018-06-24T22:38:09.489Z,101678.98
2018-06-24T22:40:37.946Z,101666.39
2018-06-24T22:43:06.377Z,101667.98
2018-06-24T22:45:34.839Z,101659.73
2018-06-24T22:48:03.034Z,101669.84
2018-06-24T22:50:32.018Z,101676.14
2018-06-24T22:53:00.463Z,101681.21
2018-06-24T22:55:29.175Z,101681.18
2018-06-24T22:57:57.621Z,101679.22
2018-06-24T23:00:25.982Z,101681.08
2018-06-24T23:02:54.613Z,101685.75
2018-06-24T23:05:23.084Z,101685.38
2018-06-24T23:07:52.514Z,101691.70
2018-06-24T23:10:20.669Z,101688.98
2018-06-24T23:12:49.180Z,101695.48
2018-06-24T23:15:17.358Z,101694.02
2018-06-24T23:17:45.935Z,101698.97
2018-06-24T23:20:14.711Z,101699.70
2018-06-24T23:22:43.169Z,101700.30
2018-06-24T23:25:11.817Z,101680.16
2018-06-24T23:27:40.334Z,101696.05
2018-06-24T23:30:09.143Z,101697.14
2018-06-24T23:32:37.697Z,101701.45
2018-06-24T23:35:06.586Z,101706.39
2018-06-24T23:37:34.710Z,101707.27
2018-06-24T23:40:03.284Z,101712.43
2018-06-24T23:42:31.756Z,101706.91
2018-06-24T23:45:00.203Z,101707.58
2018-06-24T23:47:28.583Z,101706.10
2018-06-24T23:49:56.970Z,101708.94
2018-06-24T23:52:25.394Z,101699.68
2018-06-24T23:54:54.037Z,101700.80
2018-06-24T23:57:22.470Z,101701.80
2018-06-24T23:59:50.695Z,101702.41
